createdAt,value
2022-08-05T00:00:46.449Z,10.00
2022-08-05T00:03:18.085Z,12.50
2022-08-05T00:06:04.935Z,9.00
2022-08-05T00:08:36.141Z,9.90
2022-08-05T00:11:20.498Z,9.70
2022-08-05T00:13:53.044Z,9.80
2022-08-05T00:16:35.652Z,9.80
2022-08-05T00:19:05.130Z,9.40
2022-08-05T00:21:36.034Z,9.90
2022-08-05T00:24:10.756Z,10.10
2022-08-05T00:26:39.319Z,12.00
2022-08-05T00:29:18.582Z,9.70
2022-08-05T00:32:10.632Z,10.10
2022-08-05T00:34:57.051Z,9.10
2022-08-05T00:37:50.510Z,9.30
2022-08-05T00:40:17.885Z,9.40
2022-08-05T00:42:57.915Z,10.70
2022-08-05T00:45:38.765Z,12.60
2022-08-05T00:48:17.400Z,10.20
2022-08-05T00:50:47.453Z,10.20
2022-08-05T00:54:00.439Z,9.40
2022-08-05T00:56:07.750Z,9.00
2022-08-05T00:58:36.882Z,9.80
2022-08-05T01:01:08.660Z,9.10
2022-08-05T01:03:38.644Z,9.30
2022-08-05T01:06:14.105Z,9.00
2022-08-05T01:08:44.844Z,9.30
2022-08-05T01:14:18.218Z,9.10
2022-08-05T01:17:07.193Z,10.50
2022-08-05T01:20:00.801Z,8.80
2022-08-05T01:22:52.471Z,9.90
2022-08-05T01:25:54.695Z,9.40
2022-08-05T01:31:44.535Z,10.70
2022-08-05T01:34:26.677Z,11.00
2022-08-05T01:37:09.387Z,9.40
2022-08-05T01:39:47.863Z,9.40
2022-08-05T01:42:18.018Z,10.80
2022-08-05T01:44:53.861Z,11.10
2022-08-05T01:47:24.117Z,9.50
2022-08-05T01:50:01.885Z,10.20
2022-08-05T01:52:32.386Z,10.20
2022-08-05T01:55:04.457Z,8.90
2022-08-05T01:58:09.266Z,11.20
2022-08-05T02:00:30.407Z,8.80
2022-08-05T02:03:03.622Z,9.70
2022-08-05T02:05:34.342Z,9.90
2022-08-05T02:08:04.627Z,11.10
2022-08-05T02:10:54.127Z,9.30
2022-08-05T02:13:48.803Z,9.70
2022-08-05T02:16:28.446Z,8.90
2022-08-05T02:19:07.044Z,10.60
2022-08-05T02:21:40.331Z,9.00
2022-08-05T02:24:17.812Z,9.60
2022-08-05T02:26:51.862Z,8.80
2022-08-05T02:29:58.027Z,9.50
2022-08-05T02:32:12.880Z,10.00
2022-08-05T02:34:54.595Z,9.80
2022-08-05T02:37:24.335Z,10.30
2022-08-05T02:39:53.880Z,10.60
2022-08-05T02:42:26.067Z,9.80
2022-08-05T02:44:57.231Z,8.70
2022-08-05T02:47:26.063Z,9.70
2022-08-05T02:50:14.800Z,10.00
2022-08-05T02:52:46.870Z,11.40
2022-08-05T02:55:17.566Z,8.80
2022-08-05T02:58:10.072Z,10.40
2022-08-05T03:00:41.165Z,9.50
2022-08-05T03:03:17.041Z,11.00
2022-08-05T03:06:55.219Z,9.20
2022-08-05T03:08:36.328Z,9.80
2022-08-05T03:11:57.675Z,9.80
2022-08-05T03:14:02.762Z,10.20
2022-08-05T03:16:31.828Z,9.80
2022-08-05T03:19:06.479Z,10.90
2022-08-05T03:21:49.522Z,10.60
2022-08-05T03:24:29.497Z,11.00
2022-08-05T03:26:59.570Z,11.00
2022-08-05T03:29:45.283Z,9.00
2022-08-05T03:32:15.848Z,9.50
2022-08-05T03:34:50.496Z,10.50
2022-08-05T03:37:21.099Z,11.00
2022-08-05T03:42:29.062Z,9.30
2022-08-05T03:44:57.326Z,10.20
2022-08-05T03:47:25.688Z,9.80
2022-08-05T03:50:03.636Z,8.80
2022-08-05T03:54:59.177Z,9.40
2022-08-05T03:56:09.645Z,10.60
2022-08-05T03:58:29.298Z,9.80
2022-08-05T04:03:29.490Z,9.10
2022-08-05T04:05:59.049Z,9.80
2022-08-05T04:08:35.072Z,9.70
2022-08-05T04:11:08.563Z,10.60
2022-08-05T04:13:50.859Z,9.50
2022-08-05T04:16:25.152Z,10.30
2022-08-05T04:18:54.772Z,10.60
2022-08-05T04:22:09.129Z,9.90
2022-08-05T04:24:18.625Z,10.40
2022-08-05T04:26:47.744Z,9.90
2022-08-05T04:29:15.701Z,10.40
2022-08-05T04:31:43.656Z,10.70
2022-08-05T04:34:31.573Z,10.40
2022-08-05T04:36:59.562Z,11.90
2022-08-05T04:39:29.020Z,12.30
2022-08-05T04:41:56.959Z,10.30
2022-08-05T04:44:30.254Z,10.40
2022-08-05T04:46:59.405Z,11.50
2022-08-05T04:49:38.498Z,11.70
2022-08-05T04:52:16.310Z,10.80
2022-08-05T04:54:44.993Z,13.20
2022-08-05T04:57:12.954Z,11.80
2022-08-05T04:59:41.362Z,11.40
2022-08-05T05:02:37.255Z,9.90
2022-08-05T05:05:01.756Z,11.80
2022-08-05T05:07:32.721Z,11.30
2022-08-05T05:10:06.449Z,11.10
2022-08-05T05:12:36.669Z,9.80
2022-08-05T05:15:05.959Z,9.50
2022-08-05T05:17:56.335Z,9.90
2022-08-05T05:20:28.725Z,10.70
2022-08-05T05:22:58.238Z,12.70
2022-08-05T05:25:40.365Z,11.90
2022-08-05T05:28:10.122Z,12.90
2022-08-05T05:30:41.074Z,12.80
2022-08-05T05:33:16.883Z,11.80
2022-08-05T05:35:47.429Z,10.40
2022-08-05T05:38:22.806Z,12.70
2022-08-05T05:40:56.996Z,13.80
2022-08-05T05:43:54.645Z,13.30
2022-08-05T05:46:17.552Z,10.50
2022-08-05T05:48:48.687Z,10.70
2022-08-05T05:51:25.705Z,10.40
2022-08-05T05:53:58.545Z,11.50
2022-08-05T05:56:32.806Z,13.70
2022-08-05T05:59:07.687Z,11.90
2022-08-05T06:01:39.504Z,11.80
2022-08-05T06:04:11.761Z,12.90
2022-08-05T06:06:42.054Z,14.70
2022-08-05T06:09:17.334Z,11.80
2022-08-05T06:12:02.080Z,16.20
2022-08-05T06:14:31.669Z,10.10
2022-08-05T06:17:01.965Z,10.20
2022-08-05T06:19:56.701Z,9.70
2022-08-05T06:22:33.528Z,11.10
2022-08-05T06:25:59.095Z,10.60
2022-08-05T06:28:11.032Z,11.10
2022-08-05T06:30:41.344Z,11.10
2022-08-05T06:33:10.076Z,9.30
2022-08-05T06:36:07.066Z,11.90
2022-08-05T06:38:36.223Z,9.00
2022-08-05T06:41:08.106Z,12.10
2022-08-05T06:43:51.519Z,19.20
2022-08-05T06:46:30.118Z,15.40
2022-08-05T06:49:01.153Z,15.80
2022-08-05T06:51:31.234Z,21.50
2022-08-05T06:54:02.040Z,24.10
2022-08-05T06:56:34.237Z,14.90
2022-08-05T06:59:09.360Z,27.90
2022-08-05T07:01:40.716Z,20.60
2022-08-05T07:04:10.478Z,13.20
2022-08-05T07:06:38.487Z,13.50
2022-08-05T07:09:06.442Z,12.80
2022-08-05T07:11:36.919Z,12.50
2022-08-05T07:14:30.231Z,12.60
2022-08-05T07:17:59.946Z,10.70
2022-08-05T07:22:42.340Z,12.30
2022-08-05T07:25:54.307Z,9.10
2022-08-05T07:28:05.971Z,10.40
2022-08-05T07:30:38.816Z,9.80
2022-08-05T07:33:16.621Z,9.50
2022-08-05T07:36:04.201Z,9.10
2022-08-05T07:38:43.654Z,12.60
2022-08-05T07:42:07.861Z,7.90
2022-08-05T07:44:14.488Z,8.00
2022-08-05T07:46:49.278Z,8.00
2022-08-05T07:49:18.850Z,8.50
2022-08-05T07:51:54.684Z,10.60
2022-08-05T07:54:31.373Z,7.70
2022-08-05T07:57:18.067Z,11.20
2022-08-05T07:59:51.801Z,9.10
2022-08-05T08:02:26.706Z,11.70
2022-08-05T08:05:01.063Z,10.50
2022-08-05T08:07:29.304Z,9.10
2022-08-05T08:10:08.347Z,8.70
2022-08-05T08:12:49.268Z,10.90
2022-08-05T08:15:17.945Z,8.50
2022-08-05T08:18:13.842Z,9.20
2022-08-05T08:21:02.114Z,9.40
2022-08-05T08:24:01.104Z,9.30
2022-08-05T08:26:26.818Z,7.90
2022-08-05T08:29:21.780Z,8.60
2022-08-05T08:31:50.842Z,9.10
2022-08-05T08:34:30.614Z,7.00
2022-08-05T08:37:05.307Z,8.60
2022-08-05T08:39:37.115Z,8.40
2022-08-05T08:42:32.430Z,7.60
2022-08-05T08:45:23.067Z,6.40
2022-08-05T08:48:05.860Z,5.80
2022-08-05T08:51:22.493Z,7.00
2022-08-05T08:53:25.461Z,4.90
2022-08-05T08:56:04.899Z,5.50
2022-08-05T08:58:43.875Z,5.80
2022-08-05T09:01:18.128Z,5.30
2022-08-05T09:03:54.623Z,5.70
2022-08-05T09:06:28.217Z,5.40
2022-08-05T09:09:00.688Z,5.10
2022-08-05T09:11:52.531Z,6.60
2022-08-05T09:14:58.881Z,5.50
2022-08-05T09:17:16.084Z,5.50
2022-08-05T09:20:04.709Z,5.00
2022-08-05T09:23:05.107Z,5.00
2022-08-05T09:26:03.018Z,5.30
2022-08-05T09:28:24.479Z,5.30
2022-08-05T09:31:43.490Z,6.10
2022-08-05T09:34:02.899Z,5.90
2022-08-05T09:36:55.961Z,5.30
2022-08-05T09:39:41.361Z,5.70
2022-08-05T09:42:24.452Z,5.30
2022-08-05T09:45:03.339Z,5.30
2022-08-05T09:47:55.660Z,5.10
2022-08-05T09:50:38.043Z,6.20
2022-08-05T09:53:07.044Z,5.00
2022-08-05T09:55:56.965Z,5.60
2022-08-05T09:58:25.899Z,6.00
2022-08-05T10:01:01.415Z,5.00
2022-08-05T10:03:56.874Z,4.70
2022-08-05T10:06:19.581Z,5.40
2022-08-05T10:08:53.936Z,5.90
2022-08-05T10:11:24.337Z,6.00
2022-08-05T10:13:59.475Z,8.50
2022-08-05T10:16:29.950Z,5.60
2022-08-05T10:18:58.374Z,6.20
2022-08-05T10:21:27.535Z,4.80
2022-08-05T10:24:07.558Z,5.00
2022-08-05T10:26:51.359Z,4.70
2022-08-05T10:30:05.794Z,5.70
2022-08-05T10:32:53.121Z,5.60
2022-08-05T10:35:00.616Z,5.90
2022-08-05T10:37:41.303Z,4.70
2022-08-05T10:40:27.733Z,6.90
2022-08-05T10:43:04.679Z,4.50
2022-08-05T10:45:40.009Z,4.50
2022-08-05T10:48:39.509Z,4.80
2022-08-05T10:51:28.298Z,4.30
2022-08-05T10:54:01.058Z,4.40
2022-08-05T10:56:43.983Z,4.40
2022-08-05T11:00:03.102Z,5.00
2022-08-05T11:02:14.716Z,4.50
2022-08-05T11:05:00.269Z,4.50
2022-08-05T11:07:32.871Z,5.10
2022-08-05T11:10:27.425Z,4.50
2022-08-05T11:12:57.335Z,4.70
2022-08-05T11:16:00.209Z,7.60
2022-08-05T11:18:32.335Z,4.70
2022-08-05T11:21:02.990Z,6.20
2022-08-05T11:24:04.140Z,4.60
2022-08-05T11:26:43.326Z,5.00
2022-08-05T11:29:40.239Z,6.20
2022-08-05T11:32:40.567Z,4.70
2022-08-05T11:35:08.470Z,4.30
2022-08-05T11:38:30.517Z,4.20
2022-08-05T11:41:00.858Z,8.90
2022-08-05T11:44:05.113Z,3.80
2022-08-05T11:46:33.314Z,4.20
2022-08-05T11:49:02.822Z,4.10
2022-08-05T11:51:44.274Z,4.10
2022-08-05T11:54:33.445Z,4.50
2022-08-05T11:57:08.178Z,6.00
2022-08-05T11:59:53.440Z,4.00
2022-08-05T12:02:31.167Z,3.90
2022-08-05T12:05:06.730Z,4.80
2022-08-05T12:08:09.295Z,4.60
2022-08-05T12:10:43.732Z,4.00
2022-08-05T12:13:18.466Z,4.80
2022-08-05T12:15:56.120Z,3.60
2022-08-05T12:18:34.738Z,4.50
2022-08-05T12:21:11.662Z,4.00
2022-08-05T12:23:43.006Z,4.30
2022-08-05T12:26:11.315Z,4.40
2022-08-05T12:28:39.531Z,4.30
2022-08-05T12:31:07.507Z,3.40
2022-08-05T12:33:37.099Z,4.30
2022-08-05T12:36:09.140Z,4.10
2022-08-05T12:41:13.901Z,3.90
2022-08-05T12:43:53.642Z,4.40
2022-08-05T12:46:29.487Z,3.90
2022-08-05T12:49:01.642Z,3.30
2022-08-05T12:52:14.331Z,4.70
2022-08-05T12:54:33.198Z,3.30
2022-08-05T12:57:04.205Z,4.70
2022-08-05T13:01:58.099Z,3.40
2022-08-05T13:02:41.458Z,3.80
2022-08-05T13:05:12.660Z,3.90
2022-08-05T13:08:00.557Z,3.60
2022-08-05T13:10:32.020Z,3.20
2022-08-05T13:13:00.762Z,3.00
2022-08-05T13:15:41.062Z,3.40
2022-08-05T13:18:10.896Z,2.90
2022-08-05T13:20:49.252Z,3.60
2022-08-05T13:23:22.541Z,10.60
2022-08-05T13:25:59.299Z,3.30
2022-08-05T13:28:32.123Z,3.60
2022-08-05T13:31:11.002Z,4.00
2022-08-05T13:34:25.078Z,3.40
2022-08-05T13:36:31.619Z,3.30
2022-08-05T13:38:59.612Z,3.20
2022-08-05T13:41:35.841Z,3.60
2022-08-05T13:44:06.068Z,5.10
2022-08-05T13:46:50.976Z,3.60
2022-08-05T13:49:22.011Z,3.40
2022-08-05T13:51:49.931Z,3.90
2022-08-05T13:54:24.923Z,3.30
2022-08-05T13:56:53.733Z,4.30
2022-08-05T13:59:24.186Z,2.80
2022-08-05T14:01:58.063Z,6.00
2022-08-05T14:04:51.856Z,4.00
2022-08-05T14:07:56.510Z,3.00
2022-08-05T14:10:19.270Z,11.60
2022-08-05T14:12:57.238Z,7.90
2022-08-05T14:16:07.706Z,5.30
2022-08-05T14:18:18.485Z,6.10
2022-08-05T14:20:54.512Z,3.50
2022-08-05T14:23:25.819Z,7.20
2022-08-05T14:25:58.805Z,6.30
2022-08-05T14:28:29.641Z,3.60
2022-08-05T14:33:32.586Z,7.60
2022-08-05T14:36:21.275Z,3.80
2022-08-05T14:38:51.030Z,4.80
2022-08-05T14:41:19.359Z,4.20
2022-08-05T14:43:57.673Z,5.70
2022-08-05T14:46:31.811Z,4.90
2022-08-05T14:49:07.393Z,3.20
2022-08-05T14:51:38.074Z,3.00
2022-08-05T14:54:26.596Z,2.70
2022-08-05T14:56:55.891Z,3.20
2022-08-05T14:59:23.909Z,3.90
2022-08-05T15:01:52.714Z,6.90
2022-08-05T15:04:22.679Z,9.00
2022-08-05T15:06:51.312Z,3.50
2022-08-05T15:09:51.387Z,14.00
2022-08-05T15:12:09.529Z,45.20
2022-08-05T15:14:48.205Z,18.80
2022-08-05T15:17:44.774Z,4.50
2022-08-05T15:20:18.207Z,29.00
2022-08-05T15:22:54.442Z,14.80
2022-08-05T15:25:51.389Z,36.70
2022-08-05T15:28:13.336Z,35.80
2022-08-05T15:30:45.836Z,39.00
2022-08-05T15:34:05.979Z,23.80
2022-08-05T15:36:04.825Z,19.70
2022-08-05T15:38:41.021Z,22.20
2022-08-05T15:41:22.758Z,7.90
2022-08-05T15:43:55.026Z,10.40
2022-08-05T15:46:24.063Z,21.80
2022-08-05T15:49:00.675Z,13.50
2022-08-05T15:52:10.344Z,8.70
2022-08-05T15:54:18.728Z,9.40
2022-08-05T15:56:47.184Z,11.50
2022-08-05T15:59:21.923Z,9.90
2022-08-05T16:01:53.290Z,11.40
2022-08-05T16:04:25.247Z,8.90
2022-08-05T16:06:55.480Z,8.30
2022-08-05T16:09:24.892Z,7.80
2022-08-05T16:11:54.078Z,7.70
2022-08-05T16:14:23.176Z,5.70
2022-08-05T16:16:51.355Z,9.60
2022-08-05T16:20:03.707Z,25.80
2022-08-05T16:22:10.804Z,44.10
2022-08-05T16:24:41.567Z,38.10
2022-08-05T16:27:47.323Z,41.80
2022-08-05T16:30:23.088Z,51.00
2022-08-05T16:32:54.341Z,61.40
2022-08-05T16:35:28.039Z,42.00
2022-08-05T16:38:02.025Z,45.50
2022-08-05T16:40:39.866Z,32.40
2022-08-05T16:43:08.117Z,7.20
2022-08-05T16:46:07.662Z,31.40
2022-08-05T16:48:33.978Z,17.20
2022-08-05T16:51:09.390Z,19.80
2022-08-05T16:54:04.897Z,17.20
2022-08-05T16:56:30.547Z,17.50
2022-08-05T16:58:58.980Z,18.70
2022-08-05T17:01:29.033Z,6.10
2022-08-05T17:04:16.971Z,6.70
2022-08-05T17:06:52.964Z,11.20
2022-08-05T17:09:23.157Z,10.00
2022-08-05T17:11:55.946Z,7.90
2022-08-05T17:14:37.084Z,4.50
2022-08-05T17:17:09.417Z,7.30
2022-08-05T17:19:45.458Z,5.40
2022-08-05T17:22:24.754Z,6.70
2022-08-05T17:24:57.691Z,5.20
2022-08-05T17:27:33.766Z,5.10
2022-08-05T17:30:12.122Z,5.10
2022-08-05T17:32:46.952Z,5.40
2022-08-05T17:35:20.983Z,5.10
2022-08-05T17:37:49.368Z,4.60
2022-08-05T17:40:22.473Z,5.20
2022-08-05T17:42:52.906Z,6.00
2022-08-05T17:45:23.126Z,8.10
2022-08-05T17:47:55.444Z,7.20
2022-08-05T17:50:30.515Z,8.00
2022-08-05T17:53:00.871Z,7.10
2022-08-05T17:55:37.437Z,9.70
2022-08-05T17:58:09.821Z,8.00
2022-08-05T18:00:44.925Z,10.40
2022-08-05T18:03:28.003Z,8.30
2022-08-05T18:06:11.275Z,10.10
2022-08-05T18:08:44.577Z,9.90
2022-08-05T18:11:23.265Z,9.30
2022-08-05T18:13:53.010Z,12.20
2022-08-05T18:16:21.838Z,10.20
2022-08-05T18:18:50.855Z,12.80
2022-08-05T18:21:23.038Z,9.30
2022-08-05T18:23:54.816Z,12.30
2022-08-05T18:26:27.739Z,11.60
2022-08-05T18:28:57.723Z,10.00
2022-08-05T18:31:26.107Z,10.10
2022-08-05T18:34:02.956Z,8.30
2022-08-05T18:36:31.340Z,7.50
2022-08-05T18:38:59.464Z,7.80
2022-08-05T18:41:58.336Z,10.60
2022-08-05T18:44:15.510Z,13.50
2022-08-05T18:47:01.752Z,7.40
2022-08-05T18:49:57.813Z,8.60
2022-08-05T18:52:41.615Z,7.60
2022-08-05T18:57:53.944Z,8.20
2022-08-05T19:00:29.647Z,14.50
2022-08-05T19:03:03.766Z,6.20
2022-08-05T19:06:12.713Z,5.90
2022-08-05T19:08:30.503Z,5.40
2022-08-05T19:11:04.639Z,7.30
2022-08-05T19:13:36.789Z,6.10
2022-08-05T19:16:22.083Z,6.40
2022-08-05T19:18:56.810Z,5.40
2022-08-05T19:21:34.418Z,6.20
2022-08-05T19:24:09.053Z,5.20
2022-08-05T19:26:43.909Z,7.10
2022-08-05T19:29:36.366Z,7.20
2022-08-05T19:32:08.645Z,5.70
2022-08-05T19:34:40.685Z,5.70
2022-08-05T19:37:10.616Z,5.10
2022-08-05T19:39:45.554Z,5.10
2022-08-05T19:42:26.336Z,8.30
2022-08-05T19:45:05.925Z,10.60
2022-08-05T19:47:37.473Z,11.60
2022-08-05T19:50:07.865Z,10.40
2022-08-05T19:52:38.775Z,8.20
2022-08-05T19:56:14.955Z,10.60
2022-08-05T19:58:19.796Z,10.90
2022-08-05T20:00:44.374Z,8.10
2022-08-05T20:03:12.470Z,8.10
2022-08-05T20:05:50.150Z,7.80
2022-08-05T20:08:20.418Z,5.90
2022-08-05T20:10:53.356Z,5.70
2022-08-05T20:13:29.988Z,6.80
2022-08-05T20:16:11.076Z,6.00
2022-08-05T20:18:40.012Z,7.90
2022-08-05T20:21:08.675Z,8.00
2022-08-05T20:23:50.155Z,7.10
2022-08-05T20:26:21.262Z,6.50
2022-08-05T20:28:55.650Z,6.30
2022-08-05T20:31:37.000Z,6.00
2022-08-05T20:34:14.579Z,5.20
2022-08-05T20:36:44.502Z,5.80
2022-08-05T20:39:16.223Z,8.10
2022-08-05T20:41:47.780Z,6.20
2022-08-05T20:44:30.511Z,5.80
2022-08-05T20:47:03.286Z,6.70
2022-08-05T20:52:10.714Z,6.20
2022-08-05T20:54:42.643Z,6.30
2022-08-05T20:57:43.723Z,6.00
2022-08-05T21:00:40.682Z,6.10
2022-08-05T21:03:06.283Z,7.10
2022-08-05T21:05:48.034Z,5.80
2022-08-05T21:08:28.031Z,6.40
2022-08-05T21:11:10.108Z,6.30
2022-08-05T21:13:55.544Z,6.20
2022-08-05T21:16:29.963Z,5.90
2022-08-05T21:19:00.879Z,6.60
2022-08-05T21:21:44.545Z,5.90
2022-08-05T21:24:19.401Z,5.60
2022-08-05T21:26:53.761Z,6.00
2022-08-05T21:29:31.767Z,6.20
2022-08-05T21:32:02.263Z,9.40
2022-08-05T21:34:31.723Z,11.00
2022-08-05T21:37:01.060Z,9.60
2022-08-05T21:39:29.966Z,8.50
2022-08-05T21:42:01.006Z,7.00
2022-08-05T21:46:59.352Z,7.80
2022-08-05T21:49:59.450Z,7.50
2022-08-05T21:52:27.300Z,9.40
2022-08-05T21:54:57.826Z,8.00
2022-08-05T21:57:35.858Z,7.00
2022-08-05T22:00:11.131Z,8.90
2022-08-05T22:02:42.856Z,6.90
2022-08-05T22:05:15.248Z,7.60
2022-08-05T22:07:59.442Z,9.30
2022-08-05T22:10:30.968Z,10.10
2022-08-05T22:13:09.199Z,7.40
2022-08-05T22:16:01.028Z,8.80
2022-08-05T22:18:35.787Z,7.30
2022-08-05T22:21:19.141Z,9.30
2022-08-05T22:24:08.937Z,11.90
2022-08-05T22:27:16.598Z,9.00
2022-08-05T22:29:46.072Z,8.60
2022-08-05T22:32:17.375Z,8.10
2022-08-05T22:34:45.696Z,9.50
2022-08-05T22:37:14.195Z,8.10
2022-08-05T22:39:42.119Z,8.60
2022-08-05T22:42:15.316Z,7.50
2022-08-05T22:44:48.662Z,8.10
2022-08-05T22:47:29.812Z,6.70
2022-08-05T22:50:20.045Z,7.70
2022-08-05T22:52:52.538Z,7.30
2022-08-05T22:55:22.416Z,7.00
2022-08-05T22:57:51.674Z,7.50
2022-08-05T23:00:21.727Z,7.30
2022-08-05T23:02:52.217Z,7.80
2022-08-05T23:05:22.281Z,6.90
2022-08-05T23:07:52.137Z,6.30
2022-08-05T23:10:24.008Z,6.70
2022-08-05T23:12:54.473Z,7.00
2022-08-05T23:15:29.377Z,6.40
2022-08-05T23:18:03.271Z,6.00
2022-08-05T23:20:33.206Z,7.00
2022-08-05T23:23:05.958Z,5.60
2022-08-05T23:25:52.295Z,6.90
2022-08-05T23:28:28.587Z,8.00
2022-08-05T23:31:15.869Z,6.00
2022-08-05T23:34:05.356Z,6.50
2022-08-05T23:36:39.710Z,6.40
2022-08-05T23:39:17.260Z,9.70
2022-08-05T23:42:00.519Z,6.50
2022-08-05T23:44:31.580Z,6.90
2022-08-05T23:47:14.400Z,6.50
2022-08-05T23:49:46.657Z,6.10
2022-08-05T23:52:27.518Z,6.80
2022-08-05T23:55:08.957Z,5.60
2022-08-05T23:57:37.330Z,5.10
